GIA184 WIII-WIMM
Flight info
| Callsign | GIA184 |
|---|---|
| Flight time | 1h 54m |
| Altitude | 36000 |
| Route | GOMEL T10 AKPER |
| Aircraft | A20N/M-SDE2E3FGHIRWXY/LB1 |
Departure
| Time | 2026-05-07 08:25 |
|---|---|
| Airport | Soekarno-Hatta International Airport (WIII) |
Arrival
| Time | 2026-05-07 10:19 |
|---|---|
| Airport | Kualanamu International Airport (WIMM) |
| Time | Latitude | Longitude | Altitude | Speed | Heading |
|---|---|---|---|---|---|
| 2026-05-07 07:53 | -6.11687 | 106.66685 | 32 ft | 0 kts | 159° |
| 2026-05-07 08:15 | -6.11682 | 106.66683 | 60 ft | 2 kts | 157° |
| 2026-05-07 08:15 | -6.11667 | 106.66677 | 32 ft | 2 kts | 158° |
| 2026-05-07 08:15 | -6.11651 | 106.66671 | 32 ft | 2 kts | 158° |
| 2026-05-07 08:16 | -6.11636 | 106.66665 | 32 ft | 2 kts | 158° |
| 2026-05-07 08:16 | -6.11621 | 106.66659 | 32 ft | 2 kts | 158° |
| 2026-05-07 08:16 | -6.11605 | 106.66652 | 31 ft | 2 kts | 158° |
| 2026-05-07 08:16 | -6.11590 | 106.66646 | 31 ft | 2 kts | 162° |
| 2026-05-07 08:17 | -6.11574 | 106.66646 | 29 ft | 2 kts | 229° |
| 2026-05-07 08:17 | -6.11566 | 106.66660 | 32 ft | 2 kts | 248° |
| 2026-05-07 08:17 | -6.11564 | 106.66665 | 32 ft | 0 kts | 248° |
| 2026-05-07 08:19 | -6.11566 | 106.66660 | 32 ft | 4 kts | 248° |
| 2026-05-07 08:19 | -6.11589 | 106.66604 | 30 ft | 12 kts | 248° |
| 2026-05-07 08:19 | -6.11626 | 106.66510 | 32 ft | 17 kts | 250° |
| 2026-05-07 08:20 | -6.11625 | 106.66405 | 32 ft | 16 kts | 322° |
| 2026-05-07 08:20 | -6.11519 | 106.66359 | 32 ft | 18 kts | 339° |
| 2026-05-07 08:20 | -6.11397 | 106.66311 | 31 ft | 20 kts | 338° |
| 2026-05-07 08:20 | -6.11373 | 106.66201 | 31 ft | 19 kts | 249° |
| 2026-05-07 08:21 | -6.11426 | 106.66068 | 31 ft | 22 kts | 248° |
| 2026-05-07 08:21 | -6.11488 | 106.65912 | 28 ft | 26 kts | 249° |
| 2026-05-07 08:21 | -6.11557 | 106.65735 | 28 ft | 28 kts | 249° |
| 2026-05-07 08:21 | -6.11629 | 106.65546 | 29 ft | 30 kts | 249° |
| 2026-05-07 08:22 | -6.11708 | 106.65357 | 34 ft | 29 kts | 249° |
| 2026-05-07 08:22 | -6.11787 | 106.65162 | 33 ft | 31 kts | 249° |
| 2026-05-07 08:22 | -6.11867 | 106.64959 | 37 ft | 32 kts | 248° |
| 2026-05-07 08:22 | -6.11952 | 106.64746 | 37 ft | 33 kts | 247° |
| 2026-05-07 08:23 | -6.12040 | 106.64525 | 36 ft | 35 kts | 249° |
| 2026-05-07 08:23 | -6.12129 | 106.64303 | 37 ft | 33 kts | 248° |
| 2026-05-07 08:23 | -6.12216 | 106.64086 | 37 ft | 30 kts | 249° |
| 2026-05-07 08:23 | -6.12259 | 106.63953 | 41 ft | 19 kts | 271° |
| 2026-05-07 08:24 | -6.12183 | 106.63876 | 38 ft | 15 kts | 25° |
| 2026-05-07 08:24 | -6.12089 | 106.63926 | 38 ft | 14 kts | 50° |
| 2026-05-07 08:24 | -6.12054 | 106.64014 | 35 ft | 17 kts | 68° |
| 2026-05-07 08:24 | -6.11936 | 106.64305 | 35 ft | 78 kts | 68° |
| 2026-05-07 08:25 | -6.11661 | 106.64987 | 39 ft | 130 kts | 68° |
| 2026-05-07 08:25 | -6.11281 | 106.65935 | 296 ft | 147 kts | 68° |
| 2026-05-07 08:25 | -6.10887 | 106.66866 | 846 ft | 147 kts | 66° |
| 2026-05-07 08:25 | -6.10400 | 106.67804 | 1337 ft | 153 kts | 50° |
| 2026-05-07 08:26 | -6.08445 | 106.69002 | 2203 ft | 183 kts | 29° |
| 2026-05-07 08:26 | -6.07244 | 106.69624 | 2568 ft | 205 kts | 31° |
| 2026-05-07 08:26 | -6.05939 | 106.70393 | 2918 ft | 231 kts | 34° |
| 2026-05-07 08:27 | -6.04518 | 106.71307 | 3431 ft | 252 kts | 35° |
| 2026-05-07 08:27 | -6.03005 | 106.72319 | 4073 ft | 267 kts | 36° |
| 2026-05-07 08:27 | -6.01429 | 106.73385 | 4315 ft | 272 kts | 36° |
| 2026-05-07 08:27 | -5.99831 | 106.74338 | 4408 ft | 272 kts | 22° |
| 2026-05-07 08:28 | -5.97942 | 106.74595 | 4528 ft | 279 kts | 355° |
| 2026-05-07 08:28 | -5.96102 | 106.73961 | 4639 ft | 285 kts | 328° |
| 2026-05-07 08:28 | -5.94718 | 106.72558 | 4737 ft | 285 kts | 301° |
| 2026-05-07 08:28 | -5.93836 | 106.70760 | 4846 ft | 288 kts | 292° |
| 2026-05-07 08:29 | -5.93090 | 106.68903 | 4949 ft | 286 kts | 291° |
| 2026-05-07 08:29 | -5.92338 | 106.67038 | 5008 ft | 289 kts | 292° |
| 2026-05-07 08:29 | -5.91547 | 106.65186 | 5011 ft | 288 kts | 294° |
| 2026-05-07 08:29 | -5.90726 | 106.63353 | 5012 ft | 288 kts | 295° |
| 2026-05-07 08:30 | -5.89889 | 106.61532 | 5012 ft | 287 kts | 295° |
| 2026-05-07 08:30 | -5.89037 | 106.59700 | 5136 ft | 291 kts | 295° |
| 2026-05-07 08:30 | -5.88178 | 106.57858 | 5812 ft | 291 kts | 295° |
| 2026-05-07 08:30 | -5.87321 | 106.56021 | 6808 ft | 290 kts | 295° |
| 2026-05-07 08:31 | -5.86455 | 106.54161 | 7647 ft | 296 kts | 295° |
| 2026-05-07 08:31 | -5.85580 | 106.52279 | 8490 ft | 299 kts | 295° |
| 2026-05-07 08:31 | -5.84693 | 106.50372 | 9343 ft | 304 kts | 295° |
| 2026-05-07 08:31 | -5.83793 | 106.48437 | 10133 ft | 307 kts | 295° |
| 2026-05-07 08:32 | -5.82879 | 106.46469 | 10579 ft | 326 kts | 295° |
| 2026-05-07 08:32 | -5.81886 | 106.44336 | 10804 ft | 349 kts | 295° |
| 2026-05-07 08:32 | -5.80839 | 106.42083 | 11270 ft | 360 kts | 295° |
| 2026-05-07 08:32 | -5.79774 | 106.39792 | 12015 ft | 363 kts | 295° |
| 2026-05-07 08:33 | -5.78699 | 106.37478 | 12728 ft | 367 kts | 295° |
| 2026-05-07 08:33 | -5.77611 | 106.35140 | 13256 ft | 373 kts | 295° |
| 2026-05-07 08:33 | -5.76514 | 106.32780 | 13378 ft | 372 kts | 295° |
| 2026-05-07 08:33 | -5.75421 | 106.30430 | 13483 ft | 373 kts | 295° |
| 2026-05-07 08:34 | -5.74184 | 106.28142 | 13582 ft | 373 kts | 305° |
| 2026-05-07 08:34 | -5.72521 | 106.26129 | 13948 ft | 376 kts | 317° |
| 2026-05-07 08:34 | -5.70531 | 106.24443 | 14676 ft | 375 kts | 323° |
| 2026-05-07 08:34 | -5.68474 | 106.22809 | 15292 ft | 379 kts | 322° |
| 2026-05-07 08:35 | -5.66404 | 106.21153 | 15902 ft | 382 kts | 322° |
| 2026-05-07 08:35 | -5.64315 | 106.19481 | 16496 ft | 386 kts | 322° |
| 2026-05-07 08:35 | -5.62208 | 106.17795 | 17090 ft | 389 kts | 322° |
| 2026-05-07 08:35 | -5.60080 | 106.16096 | 17668 ft | 393 kts | 322° |
| 2026-05-07 08:36 | -5.57930 | 106.14380 | 18212 ft | 396 kts | 322° |
| 2026-05-07 08:36 | -5.55759 | 106.12649 | 18712 ft | 399 kts | 322° |
| 2026-05-07 08:36 | -5.53577 | 106.10909 | 19197 ft | 402 kts | 322° |
| 2026-05-07 08:36 | -5.51378 | 106.09155 | 19704 ft | 405 kts | 322° |
| 2026-05-07 08:37 | -5.49162 | 106.07389 | 20186 ft | 408 kts | 322° |
| 2026-05-07 08:37 | -5.46961 | 106.05634 | 20653 ft | 411 kts | 322° |
| 2026-05-07 08:37 | -5.44711 | 106.03841 | 21122 ft | 414 kts | 323° |
| 2026-05-07 08:37 | -5.42448 | 106.02037 | 21604 ft | 417 kts | 323° |
| 2026-05-07 08:38 | -5.40167 | 106.00221 | 22056 ft | 420 kts | 323° |
| 2026-05-07 08:38 | -5.37867 | 105.98392 | 22488 ft | 424 kts | 323° |
| 2026-05-07 08:38 | -5.35547 | 105.96548 | 22593 ft | 425 kts | 323° |
| 2026-05-07 08:38 | -5.33232 | 105.94707 | 22694 ft | 425 kts | 323° |
| 2026-05-07 08:39 | -5.30908 | 105.92859 | 22787 ft | 425 kts | 323° |
| 2026-05-07 08:39 | -5.28580 | 105.91008 | 22800 ft | 426 kts | 323° |
| 2026-05-07 08:39 | -5.26293 | 105.89190 | 22797 ft | 425 kts | 323° |
| 2026-05-07 08:39 | -5.23997 | 105.87364 | 22800 ft | 426 kts | 323° |
| 2026-05-07 08:40 | -5.21669 | 105.85514 | 22797 ft | 426 kts | 323° |
| 2026-05-07 08:40 | -5.19342 | 105.83664 | 22799 ft | 426 kts | 323° |
| 2026-05-07 08:40 | -5.16953 | 105.81908 | 22869 ft | 428 kts | 326° |
| 2026-05-07 08:40 | -5.14517 | 105.80182 | 23332 ft | 429 kts | 326° |
| 2026-05-07 08:41 | -5.12134 | 105.78365 | 23686 ft | 432 kts | 321° |
| 2026-05-07 08:41 | -5.09854 | 105.76383 | 24034 ft | 434 kts | 320° |
| 2026-05-07 08:41 | -5.07582 | 105.74386 | 24390 ft | 435 kts | 320° |
| 2026-05-07 08:41 | -5.05302 | 105.72379 | 24722 ft | 437 kts | 320° |
| 2026-05-07 08:42 | -5.03008 | 105.70366 | 25055 ft | 439 kts | 320° |
| 2026-05-07 08:42 | -5.00705 | 105.68349 | 25381 ft | 441 kts | 320° |
| 2026-05-07 08:42 | -4.98422 | 105.66353 | 25704 ft | 442 kts | 320° |
| 2026-05-07 08:42 | -4.96096 | 105.64322 | 26005 ft | 444 kts | 320° |
| 2026-05-07 08:43 | -4.93757 | 105.62278 | 26313 ft | 446 kts | 320° |
| 2026-05-07 08:43 | -4.91411 | 105.60229 | 26621 ft | 447 kts | 321° |
| 2026-05-07 08:43 | -4.89060 | 105.58175 | 26909 ft | 449 kts | 320° |
| 2026-05-07 08:43 | -4.86697 | 105.56111 | 27187 ft | 451 kts | 320° |
| 2026-05-07 08:44 | -4.84323 | 105.54039 | 27474 ft | 453 kts | 321° |
| 2026-05-07 08:44 | -4.81944 | 105.51961 | 27752 ft | 455 kts | 321° |
| 2026-05-07 08:44 | -4.79557 | 105.49877 | 28017 ft | 456 kts | 320° |
| 2026-05-07 08:44 | -4.77153 | 105.47779 | 28294 ft | 458 kts | 320° |
| 2026-05-07 08:45 | -4.74746 | 105.45678 | 28546 ft | 460 kts | 321° |
| 2026-05-07 08:45 | -4.72327 | 105.43567 | 28761 ft | 462 kts | 320° |
| 2026-05-07 08:45 | -4.70721 | 105.42165 | 28938 ft | 463 kts | 321° |
| 2026-05-07 08:45 | -4.68282 | 105.40037 | 29184 ft | 464 kts | 320° |
| 2026-05-07 08:46 | -4.65842 | 105.37908 | 29411 ft | 466 kts | 321° |
| 2026-05-07 08:46 | -4.63387 | 105.35767 | 29649 ft | 468 kts | 320° |
| 2026-05-07 08:46 | -4.60932 | 105.33624 | 29889 ft | 469 kts | 321° |
| 2026-05-07 08:46 | -4.58458 | 105.31466 | 30092 ft | 471 kts | 320° |
| 2026-05-07 08:47 | -4.55198 | 105.28624 | 30382 ft | 473 kts | 320° |
| 2026-05-07 08:47 | -4.53498 | 105.27141 | 30540 ft | 473 kts | 320° |
| 2026-05-07 08:47 | -4.51041 | 105.24999 | 30747 ft | 475 kts | 320° |
| 2026-05-07 08:47 | -4.48547 | 105.22824 | 31010 ft | 475 kts | 320° |
| 2026-05-07 08:48 | -4.46048 | 105.20645 | 31321 ft | 474 kts | 320° |
| 2026-05-07 08:48 | -4.43561 | 105.18476 | 31624 ft | 473 kts | 320° |
| 2026-05-07 08:48 | -4.41080 | 105.16313 | 31935 ft | 472 kts | 320° |
| 2026-05-07 08:48 | -4.38603 | 105.14155 | 32223 ft | 471 kts | 320° |
| 2026-05-07 08:49 | -4.36132 | 105.12002 | 32526 ft | 470 kts | 320° |
| 2026-05-07 08:49 | -4.33702 | 105.09885 | 32805 ft | 468 kts | 320° |
| 2026-05-07 08:49 | -4.31212 | 105.07716 | 33120 ft | 467 kts | 320° |
| 2026-05-07 08:49 | -4.28800 | 105.05615 | 33403 ft | 466 kts | 320° |
| 2026-05-07 08:50 | -4.26351 | 105.03480 | 33643 ft | 466 kts | 320° |
| 2026-05-07 08:50 | -4.23902 | 105.01346 | 33902 ft | 464 kts | 320° |
| 2026-05-07 08:50 | -4.21468 | 104.99225 | 34139 ft | 463 kts | 320° |
| 2026-05-07 08:50 | -4.19039 | 104.97109 | 34369 ft | 462 kts | 320° |
| 2026-05-07 08:51 | -4.16619 | 104.95001 | 34587 ft | 461 kts | 320° |
| 2026-05-07 08:51 | -4.14202 | 104.92897 | 34790 ft | 460 kts | 320° |
| 2026-05-07 08:51 | -4.11791 | 104.90797 | 35006 ft | 459 kts | 320° |
| 2026-05-07 08:51 | -4.09382 | 104.88699 | 35216 ft | 458 kts | 320° |
| 2026-05-07 08:52 | -4.06977 | 104.86606 | 35422 ft | 458 kts | 320° |
| 2026-05-07 08:52 | -4.04577 | 104.84517 | 35631 ft | 457 kts | 320° |
| 2026-05-07 08:52 | -4.02178 | 104.82430 | 35749 ft | 457 kts | 320° |
| 2026-05-07 08:52 | -3.99777 | 104.80339 | 35784 ft | 456 kts | 320° |
| 2026-05-07 08:53 | -3.94991 | 104.76174 | 35797 ft | 456 kts | 320° |
| 2026-05-07 08:53 | -3.90200 | 104.72004 | 35792 ft | 456 kts | 320° |
| 2026-05-07 08:54 | -3.85441 | 104.67860 | 35799 ft | 456 kts | 320° |
| 2026-05-07 08:54 | -3.80648 | 104.63688 | 35793 ft | 457 kts | 320° |
| 2026-05-07 08:55 | -3.75845 | 104.59517 | 35793 ft | 457 kts | 320° |
| 2026-05-07 08:55 | -3.71035 | 104.55336 | 35797 ft | 458 kts | 320° |
| 2026-05-07 08:56 | -3.66224 | 104.51152 | 35792 ft | 458 kts | 320° |
| 2026-05-07 08:56 | -3.61405 | 104.46963 | 35794 ft | 459 kts | 320° |
| 2026-05-07 08:57 | -3.56583 | 104.42773 | 35785 ft | 459 kts | 320° |
| 2026-05-07 08:57 | -3.51762 | 104.38583 | 35802 ft | 459 kts | 320° |
| 2026-05-07 08:58 | -3.46936 | 104.34389 | 35806 ft | 460 kts | 320° |
| 2026-05-07 08:58 | -3.42105 | 104.30191 | 35788 ft | 459 kts | 319° |
| 2026-05-07 08:59 | -3.37285 | 104.26003 | 35786 ft | 459 kts | 319° |
| 2026-05-07 08:59 | -3.32457 | 104.21810 | 35792 ft | 459 kts | 320° |
| 2026-05-07 09:00 | -3.27638 | 104.17625 | 35784 ft | 458 kts | 320° |
| 2026-05-07 09:00 | -3.22857 | 104.13473 | 35786 ft | 458 kts | 320° |
| 2026-05-07 09:01 | -3.18039 | 104.09289 | 35787 ft | 458 kts | 320° |
| 2026-05-07 09:01 | -3.13229 | 104.05109 | 35783 ft | 458 kts | 320° |
| 2026-05-07 09:02 | -3.08419 | 104.00927 | 35780 ft | 458 kts | 319° |
| 2026-05-07 09:02 | -3.03612 | 103.96743 | 35785 ft | 458 kts | 320° |
| 2026-05-07 09:03 | -2.98796 | 103.92574 | 35777 ft | 458 kts | 320° |
| 2026-05-07 09:03 | -2.93978 | 103.88400 | 35789 ft | 458 kts | 320° |
| 2026-05-07 09:04 | -2.89168 | 103.84231 | 35785 ft | 458 kts | 320° |
| 2026-05-07 09:04 | -2.84355 | 103.80056 | 35787 ft | 457 kts | 320° |
| 2026-05-07 09:05 | -2.79541 | 103.75884 | 35783 ft | 457 kts | 320° |
| 2026-05-07 09:05 | -2.74770 | 103.71745 | 35782 ft | 456 kts | 320° |
| 2026-05-07 09:06 | -2.69982 | 103.67589 | 35788 ft | 455 kts | 319° |
| 2026-05-07 09:06 | -2.65196 | 103.63437 | 35785 ft | 455 kts | 320° |
| 2026-05-07 09:07 | -2.60409 | 103.59288 | 35783 ft | 455 kts | 320° |
| 2026-05-07 09:07 | -2.55633 | 103.55146 | 35781 ft | 455 kts | 320° |
| 2026-05-07 09:08 | -2.50855 | 103.51004 | 35781 ft | 455 kts | 320° |
| 2026-05-07 09:08 | -2.46108 | 103.46888 | 35778 ft | 454 kts | 320° |
| 2026-05-07 09:09 | -2.41329 | 103.42746 | 35763 ft | 454 kts | 320° |
| 2026-05-07 09:09 | -2.36557 | 103.38610 | 35766 ft | 454 kts | 320° |
| 2026-05-07 09:10 | -2.31782 | 103.34472 | 35763 ft | 454 kts | 320° |
| 2026-05-07 09:10 | -2.27001 | 103.30332 | 35758 ft | 454 kts | 320° |
| 2026-05-07 09:11 | -2.22218 | 103.26192 | 35756 ft | 455 kts | 320° |
| 2026-05-07 09:11 | -2.17424 | 103.22041 | 35757 ft | 456 kts | 320° |
| 2026-05-07 09:12 | -2.12626 | 103.17886 | 35759 ft | 457 kts | 320° |
| 2026-05-07 09:12 | -2.07846 | 103.13746 | 35762 ft | 458 kts | 320° |
| 2026-05-07 09:13 | -2.03024 | 103.09569 | 35767 ft | 459 kts | 320° |
| 2026-05-07 09:13 | -1.98192 | 103.05385 | 35771 ft | 460 kts | 320° |
| 2026-05-07 09:14 | -1.93350 | 103.01191 | 35776 ft | 461 kts | 320° |
| 2026-05-07 09:14 | -1.88495 | 102.96986 | 35781 ft | 462 kts | 320° |
| 2026-05-07 09:15 | -1.83626 | 102.92771 | 35782 ft | 463 kts | 320° |
| 2026-05-07 09:15 | -1.78756 | 102.88552 | 35786 ft | 464 kts | 320° |
| 2026-05-07 09:16 | -1.73889 | 102.84339 | 35772 ft | 462 kts | 320° |
| 2026-05-07 09:16 | -1.69023 | 102.80128 | 35772 ft | 463 kts | 320° |
| 2026-05-07 09:17 | -1.64149 | 102.75909 | 35770 ft | 464 kts | 320° |
| 2026-05-07 09:17 | -1.59298 | 102.71710 | 35767 ft | 464 kts | 320° |
| 2026-05-07 09:18 | -1.54434 | 102.67452 | 35772 ft | 465 kts | 318° |
| 2026-05-07 09:18 | -1.49727 | 102.63018 | 35769 ft | 465 kts | 317° |
| 2026-05-07 09:19 | -1.45010 | 102.58566 | 35771 ft | 466 kts | 317° |
| 2026-05-07 09:19 | -1.40269 | 102.54127 | 35772 ft | 467 kts | 317° |
| 2026-05-07 09:20 | -1.35523 | 102.49695 | 35764 ft | 467 kts | 317° |
| 2026-05-07 09:20 | -1.30800 | 102.45285 | 35766 ft | 466 kts | 317° |
| 2026-05-07 09:21 | -1.26058 | 102.40857 | 35763 ft | 467 kts | 317° |
| 2026-05-07 09:21 | -1.21310 | 102.36423 | 35762 ft | 467 kts | 317° |
| 2026-05-07 09:22 | -1.16565 | 102.31992 | 35759 ft | 466 kts | 317° |
| 2026-05-07 09:22 | -1.11824 | 102.27566 | 35760 ft | 466 kts | 317° |
| 2026-05-07 09:23 | -1.07094 | 102.23150 | 35757 ft | 465 kts | 317° |
| 2026-05-07 09:23 | -1.02389 | 102.18758 | 35757 ft | 465 kts | 317° |
| 2026-05-07 09:24 | -0.97658 | 102.14340 | 35750 ft | 465 kts | 317° |
| 2026-05-07 09:24 | -0.92923 | 102.09919 | 35751 ft | 465 kts | 317° |
| 2026-05-07 09:25 | -0.88196 | 102.05507 | 35748 ft | 465 kts | 317° |
| 2026-05-07 09:25 | -0.83467 | 102.01092 | 35749 ft | 465 kts | 317° |
| 2026-05-07 09:26 | -0.78734 | 101.96673 | 35751 ft | 465 kts | 317° |
| 2026-05-07 09:26 | -0.74010 | 101.92264 | 35755 ft | 464 kts | 317° |
| 2026-05-07 09:27 | -0.69349 | 101.87862 | 35735 ft | 464 kts | 316° |
| 2026-05-07 09:28 | -0.62317 | 101.81310 | 35756 ft | 460 kts | 317° |
| 2026-05-07 09:28 | -0.57657 | 101.76973 | 35744 ft | 458 kts | 317° |
| 2026-05-07 09:29 | -0.53017 | 101.72651 | 35742 ft | 460 kts | 317° |
| 2026-05-07 09:29 | -0.48371 | 101.68268 | 35744 ft | 459 kts | 317° |
| 2026-05-07 09:30 | -0.44490 | 101.64658 | 35744 ft | 458 kts | 317° |
| 2026-05-07 09:30 | -0.39837 | 101.60310 | 35740 ft | 459 kts | 317° |
| 2026-05-07 09:31 | -0.34378 | 101.55217 | 35738 ft | 459 kts | 316° |
| 2026-05-07 09:31 | -0.30789 | 101.51833 | 35742 ft | 459 kts | 317° |
| 2026-05-07 09:32 | -0.26100 | 101.47476 | 35742 ft | 460 kts | 317° |
| 2026-05-07 09:32 | -0.21417 | 101.43120 | 35743 ft | 460 kts | 317° |
| 2026-05-07 09:33 | -0.15970 | 101.38047 | 35740 ft | 460 kts | 317° |
| 2026-05-07 09:33 | -0.12085 | 101.34426 | 35735 ft | 459 kts | 317° |
| 2026-05-07 09:34 | -0.07411 | 101.30072 | 35734 ft | 458 kts | 317° |
| 2026-05-07 09:34 | -0.02752 | 101.25721 | 35731 ft | 459 kts | 317° |
| 2026-05-07 09:35 | 0.01920 | 101.21364 | 35733 ft | 459 kts | 317° |
| 2026-05-07 09:35 | 0.06589 | 101.17010 | 35731 ft | 460 kts | 317° |
| 2026-05-07 09:36 | 0.11272 | 101.12648 | 35736 ft | 460 kts | 317° |
| 2026-05-07 09:36 | 0.15958 | 101.08280 | 35737 ft | 461 kts | 317° |
| 2026-05-07 09:37 | 0.20658 | 101.03894 | 35749 ft | 461 kts | 317° |
| 2026-05-07 09:37 | 0.25318 | 100.99543 | 35739 ft | 462 kts | 317° |
| 2026-05-07 09:38 | 0.29882 | 100.95023 | 35737 ft | 461 kts | 317° |
| 2026-05-07 09:38 | 0.34646 | 100.90705 | 35736 ft | 462 kts | 318° |
| 2026-05-07 09:39 | 0.39391 | 100.86371 | 35739 ft | 462 kts | 317° |
| 2026-05-07 09:39 | 0.44098 | 100.81982 | 35742 ft | 462 kts | 317° |
| 2026-05-07 09:40 | 0.48535 | 100.77823 | 35741 ft | 463 kts | 317° |
| 2026-05-07 09:40 | 0.53258 | 100.73439 | 35739 ft | 463 kts | 317° |
| 2026-05-07 09:41 | 0.57983 | 100.69041 | 35744 ft | 464 kts | 317° |
| 2026-05-07 09:41 | 0.62708 | 100.64636 | 35744 ft | 464 kts | 317° |
| 2026-05-07 09:42 | 0.67403 | 100.60259 | 35748 ft | 465 kts | 317° |
| 2026-05-07 09:42 | 0.72138 | 100.55839 | 35744 ft | 465 kts | 312° |
| 2026-05-07 09:42 | 0.74400 | 100.53533 | 35624 ft | 464 kts | 307° |
| 2026-05-07 09:43 | 0.76613 | 100.51213 | 35711 ft | 459 kts | 308° |
| 2026-05-07 09:43 | 0.78889 | 100.48998 | 35753 ft | 462 kts | 320° |
| 2026-05-07 09:43 | 0.81308 | 100.46929 | 35750 ft | 465 kts | 321° |
| 2026-05-07 09:44 | 0.86207 | 100.42673 | 35746 ft | 465 kts | 318° |
| 2026-05-07 09:44 | 0.90967 | 100.38297 | 35750 ft | 465 kts | 318° |
| 2026-05-07 09:45 | 0.95704 | 100.33881 | 35755 ft | 465 kts | 317° |
| 2026-05-07 09:45 | 1.00431 | 100.29462 | 35754 ft | 465 kts | 318° |
| 2026-05-07 09:46 | 1.05137 | 100.25068 | 35754 ft | 465 kts | 318° |
| 2026-05-07 09:46 | 1.09868 | 100.20652 | 35745 ft | 465 kts | 318° |
| 2026-05-07 09:47 | 1.14598 | 100.16236 | 35744 ft | 465 kts | 318° |
| 2026-05-07 09:47 | 1.19331 | 100.11817 | 35755 ft | 465 kts | 317° |
| 2026-05-07 09:48 | 1.24064 | 100.07395 | 35757 ft | 465 kts | 318° |
| 2026-05-07 09:48 | 1.28780 | 100.02959 | 35750 ft | 465 kts | 317° |
| 2026-05-07 09:49 | 1.33512 | 99.98542 | 35759 ft | 465 kts | 318° |
| 2026-05-07 09:49 | 1.38219 | 99.94159 | 35769 ft | 466 kts | 317° |
| 2026-05-07 09:50 | 1.42954 | 99.89740 | 35764 ft | 466 kts | 317° |
| 2026-05-07 09:50 | 1.47688 | 99.85312 | 35763 ft | 466 kts | 317° |
| 2026-05-07 09:51 | 1.52426 | 99.80892 | 35778 ft | 466 kts | 318° |
| 2026-05-07 09:51 | 1.57171 | 99.76463 | 35778 ft | 467 kts | 318° |
| 2026-05-07 09:52 | 1.61917 | 99.72023 | 35790 ft | 467 kts | 317° |
| 2026-05-07 09:52 | 1.66632 | 99.67608 | 35787 ft | 467 kts | 318° |
| 2026-05-07 09:53 | 1.71390 | 99.63172 | 35807 ft | 468 kts | 318° |
| 2026-05-07 09:53 | 1.76194 | 99.58801 | 35785 ft | 466 kts | 322° |
| 2026-05-07 09:54 | 1.81659 | 99.55323 | 35339 ft | 467 kts | 334° |
| 2026-05-07 09:54 | 1.84557 | 99.53846 | 34803 ft | 468 kts | 334° |
| 2026-05-07 09:54 | 1.87454 | 99.52361 | 34268 ft | 468 kts | 334° |
| 2026-05-07 09:54 | 1.90345 | 99.50873 | 33734 ft | 469 kts | 334° |
| 2026-05-07 09:55 | 1.93260 | 99.49371 | 33129 ft | 471 kts | 334° |
| 2026-05-07 09:55 | 1.96180 | 99.47866 | 32542 ft | 473 kts | 334° |
| 2026-05-07 09:55 | 1.99107 | 99.46356 | 31971 ft | 474 kts | 334° |
| 2026-05-07 09:55 | 2.02049 | 99.44840 | 31402 ft | 475 kts | 334° |
| 2026-05-07 09:56 | 2.04955 | 99.43342 | 30855 ft | 477 kts | 334° |
| 2026-05-07 09:56 | 2.07905 | 99.41820 | 30316 ft | 478 kts | 334° |
| 2026-05-07 09:56 | 2.10856 | 99.40299 | 29753 ft | 475 kts | 334° |
| 2026-05-07 09:56 | 2.13798 | 99.38782 | 29052 ft | 472 kts | 334° |
| 2026-05-07 09:57 | 2.16672 | 99.37301 | 28462 ft | 467 kts | 334° |
| 2026-05-07 09:57 | 2.19547 | 99.35818 | 27925 ft | 461 kts | 334° |
| 2026-05-07 09:57 | 2.22381 | 99.34356 | 27337 ft | 456 kts | 334° |
| 2026-05-07 09:57 | 2.25189 | 99.32908 | 26755 ft | 451 kts | 334° |
| 2026-05-07 09:58 | 2.27967 | 99.31475 | 26140 ft | 448 kts | 334° |
| 2026-05-07 09:58 | 2.30720 | 99.30055 | 25593 ft | 444 kts | 334° |
| 2026-05-07 09:58 | 2.33457 | 99.28642 | 25036 ft | 440 kts | 334° |
| 2026-05-07 09:58 | 2.36173 | 99.27242 | 24468 ft | 437 kts | 334° |
| 2026-05-07 09:59 | 2.38876 | 99.25847 | 23896 ft | 435 kts | 335° |
| 2026-05-07 09:59 | 2.41572 | 99.24475 | 23293 ft | 432 kts | 337° |
| 2026-05-07 09:59 | 2.44363 | 99.23383 | 22714 ft | 426 kts | 345° |
| 2026-05-07 09:59 | 2.47197 | 99.22663 | 22230 ft | 416 kts | 351° |
| 2026-05-07 10:00 | 2.50031 | 99.22119 | 21757 ft | 415 kts | 351° |
| 2026-05-07 10:00 | 2.52825 | 99.21572 | 21281 ft | 413 kts | 351° |
| 2026-05-07 10:00 | 2.55633 | 99.21017 | 20801 ft | 408 kts | 351° |
| 2026-05-07 10:00 | 2.58409 | 99.20468 | 20330 ft | 405 kts | 351° |
| 2026-05-07 10:01 | 2.61170 | 99.19924 | 19838 ft | 403 kts | 351° |
| 2026-05-07 10:01 | 2.63915 | 99.19384 | 19376 ft | 399 kts | 351° |
| 2026-05-07 10:01 | 2.66634 | 99.18849 | 18896 ft | 396 kts | 351° |
| 2026-05-07 10:01 | 2.69338 | 99.18317 | 18424 ft | 395 kts | 351° |
| 2026-05-07 10:02 | 2.72019 | 99.17789 | 17930 ft | 392 kts | 351° |
| 2026-05-07 10:02 | 2.74682 | 99.17266 | 17498 ft | 387 kts | 351° |
| 2026-05-07 10:02 | 2.77323 | 99.16746 | 17050 ft | 386 kts | 351° |
| 2026-05-07 10:02 | 2.79915 | 99.16236 | 16600 ft | 383 kts | 351° |
| 2026-05-07 10:03 | 2.82521 | 99.15723 | 16160 ft | 380 kts | 351° |
| 2026-05-07 10:03 | 2.85114 | 99.15214 | 15711 ft | 378 kts | 351° |
| 2026-05-07 10:03 | 2.87683 | 99.14709 | 15269 ft | 375 kts | 351° |
| 2026-05-07 10:03 | 2.90236 | 99.14207 | 14832 ft | 373 kts | 351° |
| 2026-05-07 10:04 | 2.92771 | 99.13708 | 14399 ft | 370 kts | 351° |
| 2026-05-07 10:04 | 2.95293 | 99.13202 | 14046 ft | 366 kts | 348° |
| 2026-05-07 10:04 | 2.97640 | 99.12314 | 13913 ft | 356 kts | 333° |
| 2026-05-07 10:04 | 2.99628 | 99.10901 | 13797 ft | 346 kts | 319° |
| 2026-05-07 10:05 | 3.01272 | 99.09247 | 13660 ft | 333 kts | 307° |
| 2026-05-07 10:05 | 3.02818 | 99.07545 | 13179 ft | 329 kts | 315° |
| 2026-05-07 10:05 | 3.04427 | 99.05923 | 12726 ft | 328 kts | 317° |
| 2026-05-07 10:05 | 3.06066 | 99.04351 | 12368 ft | 324 kts | 317° |
| 2026-05-07 10:06 | 3.07685 | 99.02801 | 11993 ft | 321 kts | 317° |
| 2026-05-07 10:06 | 3.09282 | 99.01252 | 11607 ft | 318 kts | 317° |
| 2026-05-07 10:06 | 3.10856 | 98.99707 | 11212 ft | 316 kts | 316° |
| 2026-05-07 10:06 | 3.12415 | 98.98165 | 10832 ft | 314 kts | 316° |
| 2026-05-07 10:07 | 3.13928 | 98.96599 | 10370 ft | 311 kts | 306° |
| 2026-05-07 10:07 | 3.15468 | 98.95124 | 9901 ft | 307 kts | 309° |
| 2026-05-07 10:07 | 3.16961 | 98.93620 | 9366 ft | 305 kts | 307° |
| 2026-05-07 10:07 | 3.18338 | 98.92012 | 8874 ft | 301 kts | 301° |
| 2026-05-07 10:08 | 3.19611 | 98.90366 | 8414 ft | 296 kts | 303° |
| 2026-05-07 10:08 | 3.20943 | 98.88828 | 8075 ft | 288 kts | 305° |
| 2026-05-07 10:08 | 3.22246 | 98.87511 | 7841 ft | 295 kts | 308° |
| 2026-05-07 10:08 | 3.23154 | 98.86675 | 7751 ft | 294 kts | 322° |
| 2026-05-07 10:09 | 3.24809 | 98.85403 | 7623 ft | 298 kts | 334° |
| 2026-05-07 10:09 | 3.26564 | 98.84349 | 7175 ft | 293 kts | 334° |
| 2026-05-07 10:09 | 3.28246 | 98.83179 | 6597 ft | 296 kts | 328° |
| 2026-05-07 10:09 | 3.29765 | 98.81807 | 6144 ft | 291 kts | 319° |
| 2026-05-07 10:10 | 3.30976 | 98.80270 | 5870 ft | 280 kts | 301° |
| 2026-05-07 10:10 | 3.32065 | 98.78710 | 5785 ft | 268 kts | 309° |
| 2026-05-07 10:10 | 3.33310 | 98.77373 | 5650 ft | 258 kts | 314° |
| 2026-05-07 10:10 | 3.34602 | 98.76140 | 5355 ft | 256 kts | 316° |
| 2026-05-07 10:11 | 3.35897 | 98.74943 | 5176 ft | 250 kts | 316° |
| 2026-05-07 10:11 | 3.37182 | 98.73750 | 4978 ft | 252 kts | 316° |
| 2026-05-07 10:11 | 3.38463 | 98.72546 | 4699 ft | 253 kts | 316° |
| 2026-05-07 10:11 | 3.39736 | 98.71338 | 4402 ft | 252 kts | 316° |
| 2026-05-07 10:12 | 3.40979 | 98.70151 | 4122 ft | 250 kts | 316° |
| 2026-05-07 10:12 | 3.42264 | 98.69009 | 4018 ft | 238 kts | 327° |
| 2026-05-07 10:12 | 3.43768 | 98.68557 | 3897 ft | 226 kts | 2° |
| 2026-05-07 10:12 | 3.45232 | 98.68949 | 3796 ft | 213 kts | 28° |
| 2026-05-07 10:13 | 3.46409 | 98.69758 | 3760 ft | 196 kts | 39° |
| 2026-05-07 10:13 | 3.47409 | 98.70670 | 3441 ft | 194 kts | 44° |
| 2026-05-07 10:13 | 3.48353 | 98.71616 | 3193 ft | 188 kts | 45° |
| 2026-05-07 10:13 | 3.49251 | 98.72513 | 3111 ft | 174 kts | 45° |
| 2026-05-07 10:14 | 3.50054 | 98.73315 | 3020 ft | 153 kts | 45° |
| 2026-05-07 10:14 | 3.50762 | 98.74024 | 3006 ft | 139 kts | 45° |
| 2026-05-07 10:14 | 3.51455 | 98.74716 | 2921 ft | 142 kts | 45° |
| 2026-05-07 10:14 | 3.52140 | 98.75401 | 2748 ft | 137 kts | 45° |
| 2026-05-07 10:15 | 3.52817 | 98.76078 | 2578 ft | 137 kts | 45° |
| 2026-05-07 10:15 | 3.53491 | 98.76752 | 2405 ft | 136 kts | 45° |
| 2026-05-07 10:15 | 3.54156 | 98.77417 | 2235 ft | 135 kts | 45° |
| 2026-05-07 10:15 | 3.54811 | 98.78076 | 2047 ft | 135 kts | 46° |
| 2026-05-07 10:16 | 3.55451 | 98.78735 | 1866 ft | 131 kts | 46° |
| 2026-05-07 10:16 | 3.56088 | 98.79386 | 1696 ft | 129 kts | 46° |
| 2026-05-07 10:16 | 3.56714 | 98.80028 | 1511 ft | 128 kts | 47° |
| 2026-05-07 10:16 | 3.57330 | 98.80659 | 1337 ft | 125 kts | 46° |
| 2026-05-07 10:17 | 3.57950 | 98.81246 | 1191 ft | 122 kts | 42° |
| 2026-05-07 10:17 | 3.58579 | 98.81824 | 1026 ft | 124 kts | 44° |
| 2026-05-07 10:17 | 3.59205 | 98.82448 | 926 ft | 129 kts | 46° |
| 2026-05-07 10:17 | 3.59833 | 98.83091 | 845 ft | 129 kts | 45° |
| 2026-05-07 10:18 | 3.60461 | 98.83718 | 670 ft | 130 kts | 45° |
| 2026-05-07 10:18 | 3.61095 | 98.84352 | 482 ft | 127 kts | 47° |
| 2026-05-07 10:18 | 3.61698 | 98.84965 | 326 ft | 122 kts | 45° |
| 2026-05-07 10:18 | 3.62277 | 98.85540 | 157 ft | 115 kts | 45° |
| 2026-05-07 10:19 | 3.62826 | 98.86095 | 47 ft | 107 kts | 46° |
| 2026-05-07 10:19 | 3.63310 | 98.86581 | 30 ft | 89 kts | 45° |
| 2026-05-07 10:19 | 3.63702 | 98.86974 | 32 ft | 72 kts | 45° |
| 2026-05-07 10:19 | 3.63912 | 98.87183 | 31 ft | 45 kts | 45° |
| 2026-05-07 10:20 | 3.64080 | 98.87407 | 29 ft | 40 kts | 66° |
| 2026-05-07 10:20 | 3.64134 | 98.87615 | 29 ft | 15 kts | 73° |
| 2026-05-07 10:20 | 3.64167 | 98.87681 | 29 ft | 17 kts | 56° |
| 2026-05-07 10:20 | 3.64249 | 98.87772 | 29 ft | 19 kts | 46° |
| 2026-05-07 10:21 | 3.64346 | 98.87869 | 29 ft | 21 kts | 45° |
| 2026-05-07 10:21 | 3.64419 | 98.87977 | 29 ft | 15 kts | 99° |
| 2026-05-07 10:21 | 3.64358 | 98.88052 | 29 ft | 15 kts | 135° |
| 2026-05-07 10:21 | 3.64276 | 98.88135 | 29 ft | 18 kts | 134° |
| 2026-05-07 10:22 | 3.64167 | 98.88194 | 29 ft | 18 kts | 199° |
| 2026-05-07 10:22 | 3.64065 | 98.88104 | 29 ft | 21 kts | 224° |
| 2026-05-07 10:22 | 3.63955 | 98.87992 | 29 ft | 23 kts | 225° |
| 2026-05-07 10:22 | 3.63866 | 98.87981 | 29 ft | 11 kts | 136° |
| 2026-05-07 10:23 | 3.63806 | 98.88039 | 29 ft | 13 kts | 137° |
| 2026-05-07 10:23 | 3.63767 | 98.88050 | 29 ft | 3 kts | 219° |
| 2026-05-07 10:23 | 3.63742 | 98.88027 | 29 ft | 7 kts | 225° |
| 2026-05-07 10:23 | 3.63719 | 98.88003 | 29 ft | 0 kts | 225° |